Home   Weather   North Macedonia   Kumanovo   Past weeks
Flag for North Macedonia

Past Weather in Kumanovo, North Macedonia — Yesterday and Last 2 Weeks

Currently: 52 °F. Sunny. (Weather station: Skopje-Petrovec, North Macedonia). See more current weather

Past Weather in Kumanovo — Graph

°F

Kumanovo Temperature Yesterday

Maximum temperature yesterday: 64 °F (at 4:00 pm)
Minimum temperature yesterday: 27 °F (at 6:00 am)
Average temperature yesterday: 45 °F

High & Low Weather Summary for the Past Weeks

 TemperatureHumidityPressure
High70 °F (Feb 23, 3:00 pm)100% (Feb 19, 5:30 am)30.60 "Hg (Feb 19, 5:30 am)
Low23 °F (Feb 19, 5:30 am)25% (Feb 23, 3:00 pm)30.12 "Hg (Feb 17, 3:30 pm)
Average43 °F69%30.39 "Hg
* Reported Feb 17 10:00 am — Mar 4 10:00 am, Kumanovo. Weather by CustomWeather, © 2021

Note: Actual official high and low records may vary slightly from our data, if they occured in-between our weather recording intervals... More about our weather records

Kumanovo Weather History for the Previous 24 Hours

Scroll right to see more
 ConditionsComfort  
Time TempWeatherWind HumidityBarometerVisibility
10:00 am
Thu, Mar 4
46 °FSunny.1 mph57%30.27 "Hg10 mi
9:30 am43 °FSunny.1 mph66%30.27 "Hg10 mi
9:00 am41 °FSunny.1 mph70%30.30 "Hg10 mi
8:00 am36 °FSunny.No wind75%30.30 "Hg10 mi
7:30 am32 °FSunny.No wind80%30.30 "Hg10 mi
7:00 am28 °FSunny.No wind86%30.33 "Hg10 mi
6:00 am27 °FClear.No wind93%30.33 "Hg10 mi
5:30 am27 °FClear.No wind86%30.33 "Hg10 mi
4:30 am28 °FClear.No wind86%30.33 "Hg10 mi
4:00 am28 °FClear.No wind86%30.33 "Hg10 mi
3:30 am28 °FClear.No wind86%30.33 "Hg10 mi
3:00 am30 °FClear.No wind80%30.33 "Hg10 mi
2:00 am30 °FClear.No wind86%30.36 "Hg10 mi
1:30 am32 °FClear.No wind80%30.36 "Hg10 mi
12:30 am32 °FClear.No wind80%30.36 "Hg10 mi
12:00 am34 °FClear.3 mph75%30.36 "Hg10 mi
11:30 pm
Wed, Mar 3
36 °FClear.No wind75%30.36 "Hg10 mi
11:00 pm34 °FClear.No wind81%30.36 "Hg10 mi
10:30 pm37 °FClear.2 mph70%30.39 "Hg10 mi
10:00 pm37 °FClear.2 mph70%30.39 "Hg10 mi
9:30 pm41 °FClear.No wind66%30.39 "Hg10 mi
9:00 pm41 °FClear.No wind66%30.39 "Hg10 mi
8:30 pm41 °FClear.2 mph61%30.39 "Hg10 mi
8:00 pm41 °FClear.2 mph66%30.39 "Hg10 mi
7:30 pm43 °FClear.3 mph61%30.36 "Hg10 mi
7:00 pm46 °FClear.2 mph53%30.36 "Hg10 mi
6:30 pm48 °FClear.2 mph50%30.36 "Hg10 mi
6:00 pm52 °FClear.3 mph44%30.36 "Hg10 mi
5:30 pm57 °FClear.No wind33%30.36 "Hg10 mi
5:00 pm61 °FSunny.2 mph31%30.36 "Hg10 mi
4:30 pm63 °FSunny.No wind30%30.36 "Hg10 mi
4:00 pm64 °FSunny.No wind26%30.36 "Hg10 mi
3:30 pm63 °FSunny.2 mph27%30.36 "Hg10 mi
3:00 pm63 °FSunny.No wind27%30.39 "Hg10 mi
2:30 pm63 °FSunny.2 mph27%30.39 "Hg10 mi
2:00 pm63 °FSunny.No wind27%30.39 "Hg10 mi
1:30 pm61 °FSunny.No wind31%30.42 "Hg10 mi
1:00 pm61 °FSunny.No wind31%30.42 "Hg10 mi
12:30 pm59 °FSunny.No wind31%30.45 "Hg10 mi
12:00 pm59 °FSunny.3 mph31%30.45 "Hg10 mi
11:30 am55 °FSunny.No wind31%30.48 "Hg10 mi
11:00 am54 °FSunny.2 mph33%30.48 "Hg10 mi
Weather by CustomWeather, © 2021

See weather overview